Time;durP1;ratioP1;P1;durP2;ratioP2;P2;SDS_P1;SDS_P2;PMS_P1;PMS_P2;Temp;Humidity;BMP_temperature;BMP_pressure;BME280_temperature;BME280_humidity;BME280_pressure;Samples;Min_cycle;Max_cycle;Signal;HPM_P1;HPM_P2
2023/03/05 00:02:25;;;;;;;57.20;52.30;;;;;;;2.33;81.60;98390.03;5019639;28;20034;-73
2023/03/05 00:04:50;;;;;;;54.13;49.42;;;;;;;2.37;81.67;98396.59;5033371;28;20412;-73
2023/03/05 00:07:15;;;;;;;54.67;49.78;;;;;;;2.40;81.09;98402.38;5032376;28;20536;-73
2023/03/05 00:09:41;;;;;;;52.20;47.85;;;;;;;2.37;81.01;98400.09;5032588;28;20036;-73
2023/03/05 00:12:06;;;;;;;51.92;47.45;;;;;;;2.45;80.64;98402.63;5039196;28;20103;-73
2023/03/05 00:14:32;;;;;;;50.95;46.50;;;;;;;2.43;80.98;98407.28;5040476;28;20056;-75
2023/03/05 00:16:57;;;;;;;55.30;50.22;;;;;;;2.41;81.35;98404.00;5038315;28;20115;-73
2023/03/05 00:19:22;;;;;;;52.63;48.25;;;;;;;2.41;80.76;98409.31;5040691;28;20481;-73
2023/03/05 00:21:48;;;;;;;54.45;49.50;;;;;;;2.38;81.41;98403.56;5034259;28;20153;-74
2023/03/05 00:24:17;;;;;;;48.92;44.85;;;;;;;2.35;81.29;98404.78;5022669;28;20495;-73
2023/03/05 00:26:43;;;;;;;47.38;42.97;;;;;;;2.38;80.84;98404.38;5053030;28;20477;-74
2023/03/05 00:29:10;;;;;;;50.72;46.67;;;;;;;2.36;80.27;98406.41;5039057;28;20108;-73
2023/03/05 00:31:36;;;;;;;49.97;45.92;;;;;;;2.41;80.12;98404.00;5018836;28;20130;-73
2023/03/05 00:34:10;;;;;;;48.25;44.15;;;;;;;2.52;79.64;98408.81;5031848;28;20056;-73
2023/03/05 00:36:43;;;;;;;47.53;43.78;;;;;;;2.40;80.16;98397.06;5035958;28;20192;-73
2023/03/05 00:39:10;;;;;;;44.75;41.13;;;;;;;2.36;80.31;98401.09;5030627;28;20171;-73
2023/03/05 00:41:35;;;;;;;44.35;40.65;;;;;;;2.34;79.09;98392.47;5032069;28;20076;-73
2023/03/05 00:44:01;;;;;;;45.92;42.47;;;;;;;2.35;80.11;98399.44;5017382;28;20472;-74
2023/03/05 00:46:27;;;;;;;43.70;40.00;;;;;;;2.27;80.18;98386.25;5031790;28;20018;-73
2023/03/05 00:48:53;;;;;;;43.33;39.53;;;;;;;2.37;79.54;98392.13;5017223;28;20416;-72
2023/03/05 00:51:19;;;;;;;41.83;38.45;;;;;;;2.39;79.34;98384.78;5042401;28;20026;-73
2023/03/05 00:53:45;;;;;;;39.85;36.72;;;;;;;2.43;79.19;98390.53;5031508;28;20043;-73
2023/03/05 00:56:10;;;;;;;40.10;36.70;;;;;;;2.41;78.97;98389.88;5023703;28;20025;-73
2023/03/05 00:58:36;;;;;;;34.60;32.05;;;;;;;2.28;78.32;98387.94;5038141;28;20037;-73
2023/03/05 01:01:02;;;;;;;32.72;30.23;;;;;;;2.22;78.17;98383.34;5051411;28;20067;-74
2023/03/05 01:03:29;;;;;;;32.78;29.95;;;;;;;2.25;77.68;98382.97;5035564;28;20040;-73
2023/03/05 01:05:54;;;;;;;26.20;23.80;;;;;;;2.34;75.59;98370.41;5014768;28;20021;-74
2023/03/05 01:08:20;;;;;;;22.30;20.55;;;;;;;2.18;76.50;98375.94;5044648;28;20039;-74
2023/03/05 01:10:45;;;;;;;17.48;15.80;;;;;;;2.18;74.52;98370.63;5041434;28;20390;-74
2023/03/05 01:13:11;;;;;;;18.35;16.75;;;;;;;2.19;75.41;98373.13;5033091;28;20048;-73
2023/03/05 01:15:36;;;;;;;18.15;16.27;;;;;;;2.37;74.49;98370.03;5031103;28;20033;-74
2023/03/05 01:18:01;;;;;;;15.73;14.30;;;;;;;2.28;74.50;98371.16;5034055;28;20041;-75
2023/03/05 01:20:27;;;;;;;10.32;9.20;;;;;;;2.14;72.55;98364.88;5042696;28;20527;-74
2023/03/05 01:22:53;;;;;;;8.60;7.70;;;;;;;2.17;71.54;98369.78;4999752;28;20116;-74
2023/03/05 01:25:18;;;;;;;7.90;6.35;;;;;;;2.15;71.00;98360.41;5044089;28;20100;-74
2023/03/05 01:27:44;;;;;;;8.05;6.40;;;;;;;2.18;70.94;98363.47;5027727;28;20052;-74
2023/03/05 01:30:11;;;;;;;7.30;4.70;;;;;;;2.11;69.94;98349.31;5038916;28;20434;-74
2023/03/05 01:32:36;;;;;;;7.22;5.97;;;;;;;2.08;70.86;98352.31;5037535;28;20048;-75
2023/03/05 01:35:03;;;;;;;5.50;4.55;;;;;;;2.06;69.25;98346.38;5042883;28;20416;-74
2023/03/05 01:37:29;;;;;;;6.40;3.95;;;;;;;2.14;68.88;98345.47;5011159;28;20033;-74
2023/03/05 01:39:54;;;;;;;5.10;3.08;;;;;;;2.18;68.47;98342.22;5022634;28;20028;-75
2023/03/05 01:42:20;;;;;;;5.57;3.13;;;;;;;2.21;66.96;98344.53;5032051;28;20129;-74
2023/03/05 01:45:09;;;;;;;4.45;2.30;;;;;;;2.21;66.32;98339.22;5030809;28;20024;-74
2023/03/05 01:47:34;;;;;;;6.53;2.33;;;;;;;2.26;64.25;98328.84;5048125;28;20065;-75
2023/03/05 01:50:00;;;;;;;6.70;2.45;;;;;;;2.35;63.55;98326.88;5030617;28;20053;-74
2023/03/05 01:52:26;;;;;;;5.93;2.55;;;;;;;2.37;64.74;98333.66;5018310;28;20605;-74
2023/03/05 01:54:58;;;;;;;5.20;2.20;;;;;;;2.28;64.57;98333.97;5030163;28;20032;-74
2023/03/05 01:57:28;;;;;;;8.40;2.20;;;;;;;2.33;63.30;98342.19;5018671;28;20048;-74
2023/03/05 01:59:57;;;;;;;5.90;2.30;;;;;;;2.30;65.04;98332.75;5013935;28;20120;-73
2023/03/05 02:02:23;;;;;;;4.13;2.53;;;;;;;2.36;64.64;98328.50;5010655;28;20044;-74
2023/03/05 02:04:53;;;;;;;5.25;2.25;;;;;;;2.44;63.69;98328.41;5026264;28;20123;-74
2023/03/05 02:07:20;;;;;;;4.32;1.88;;;;;;;2.31;63.91;98338.91;5027470;28;20044;-74
2023/03/05 02:09:45;;;;;;;4.30;2.55;;;;;;;2.37;64.05;98338.97;5043229;28;20388;-74
2023/03/05 02:12:11;;;;;;;6.55;2.47;;;;;;;2.36;63.52;98332.00;5051445;28;20068;-74
2023/03/05 02:14:37;;;;;;;6.22;2.58;;;;;;;2.38;62.93;98318.53;5020794;28;20112;-74
2023/03/05 02:17:04;;;;;;;4.57;2.05;;;;;;;2.48;64.21;98325.16;5037148;28;20040;-74
2023/03/05 02:19:48;;;;;;;4.75;2.17;;;;;;;2.34;64.14;98318.09;5030585;28;20033;-74
2023/03/05 02:22:15;;;;;;;5.18;2.05;;;;;;;2.31;64.19;98323.75;5040389;28;20436;-74
2023/03/05 02:24:40;;;;;;;5.13;2.28;;;;;;;2.36;61.86;98316.06;5026530;28;20028;-73
2023/03/05 02:27:06;;;;;;;2.97;2.00;;;;;;;2.35;62.44;98316.25;5040013;28;20084;-74
2023/03/05 02:29:32;;;;;;;5.07;2.20;;;;;;;2.38;62.43;98308.72;5037758;28;20086;-74
2023/03/05 02:31:59;;;;;;;4.97;2.03;;;;;;;2.35;62.40;98309.09;5030126;28;20419;-74
2023/03/05 02:34:24;;;;;;;3.20;1.80;;;;;;;2.32;62.74;98314.78;5033216;28;20100;-74
2023/03/05 02:36:50;;;;;;;2.92;1.90;;;;;;;2.26;63.73;98302.28;5029785;28;20667;-74
2023/03/05 02:39:16;;;;;;;4.75;1.88;;;;;;;2.33;62.73;98307.66;5033131;28;20403;-73
2023/03/05 02:41:42;;;;;;;3.13;1.75;;;;;;;2.31;62.55;98302.50;5029932;28;20034;-75
2023/03/05 02:44:07;;;;;;;5.65;2.08;;;;;;;2.37;63.71;98301.78;5029673;28;20036;-73
2023/03/05 02:46:33;;;;;;;4.60;1.95;;;;;;;2.28;62.81;98304.72;5032817;28;20488;-73
2023/03/05 02:48:58;;;;;;;3.47;1.95;;;;;;;2.25;64.52;98290.00;5034209;28;20025;-73
2023/03/05 02:51:24;;;;;;;3.80;2.00;;;;;;;2.31;64.16;98296.41;5033888;28;20084;-75
2023/03/05 02:53:49;;;;;;;2.72;1.98;;;;;;;2.32;63.67;98293.53;5036332;28;20025;-74
2023/03/05 02:56:16;;;;;;;5.60;2.35;;;;;;;2.30;63.11;98292.91;5033622;28;20034;-74
2023/03/05 02:58:41;;;;;;;3.80;1.90;;;;;;;2.32;63.70;98282.91;5048174;28;20036;-74
2023/03/05 03:01:08;;;;;;;3.33;1.92;;;;;;;2.31;63.92;98286.56;5043889;28;20102;-74
2023/03/05 03:03:34;;;;;;;5.35;2.03;;;;;;;2.29;63.32;98277.97;5041337;28;20029;-73
2023/03/05 03:05:59;;;;;;;3.15;1.90;;;;;;;2.29;63.57;98282.47;5043456;28;20144;-73
2023/03/05 03:08:24;;;;;;;2.53;1.83;;;;;;;2.25;63.77;98278.53;5046747;28;20025;-73
2023/03/05 03:10:50;;;;;;;4.28;1.98;;;;;;;2.31;62.72;98286.56;5043638;28;20110;-73
2023/03/05 03:13:15;;;;;;;3.67;1.92;;;;;;;2.28;63.41;98271.03;5039911;28;20078;-74
2023/03/05 03:15:41;;;;;;;4.93;1.80;;;;;;;2.18;64.56;98259.88;5033412;28;20454;-73
2023/03/05 03:18:06;;;;;;;3.45;2.38;;;;;;;2.22;62.94;98260.34;5017010;28;20029;-75
2023/03/05 03:20:33;;;;;;;5.85;2.00;;;;;;;2.21;64.41;98254.19;5033285;28;20029;-75
2023/03/05 03:22:59;;;;;;;4.20;2.35;;;;;;;2.23;64.01;98273.44;5053364;28;20025;-75
2023/03/05 03:25:25;;;;;;;3.03;2.22;;;;;;;2.26;64.64;98265.09;5034457;28;20511;-75
2023/03/05 03:27:53;;;;;;;4.35;2.28;;;;;;;2.26;63.72;98257.13;5050587;28;20442;-75
2023/03/05 03:30:18;;;;;;;3.22;1.80;;;;;;;2.27;63.40;98247.28;5046174;28;20053;-74
2023/03/05 03:32:44;;;;;;;5.15;2.78;;;;;;;2.29;63.95;98250.59;5030234;28;20025;-74
2023/03/05 03:35:10;;;;;;;3.17;2.05;;;;;;;2.33;64.41;98258.00;5042262;28;20170;-74
2023/03/05 03:37:35;;;;;;;5.22;2.60;;;;;;;2.40;63.84;98253.56;5039709;28;20074;-74
2023/03/05 03:40:04;;;;;;;3.28;2.15;;;;;;;2.24;63.56;98237.84;5043869;28;20042;-74
2023/03/05 03:42:29;;;;;;;5.47;2.47;;;;;;;2.27;64.11;98248.13;5030017;28;20059;-73
2023/03/05 03:44:55;;;;;;;3.38;2.47;;;;;;;2.32;63.92;98234.25;5032674;28;20065;-73
2023/03/05 03:47:20;;;;;;;3.88;2.70;;;;;;;2.29;64.65;98235.47;5035520;28;20118;-72
2023/03/05 03:49:45;;;;;;;3.33;2.33;;;;;;;2.28;64.81;98231.19;5044542;28;20473;-74
2023/03/05 03:52:11;;;;;;;3.45;2.25;;;;;;;2.22;65.11;98234.56;5046272;28;20036;-74
2023/03/05 03:54:36;;;;;;;5.85;2.90;;;;;;;2.27;65.29;98232.19;5042538;28;20128;-74
2023/03/05 03:57:02;;;;;;;4.80;2.60;;;;;;;2.08;65.90;98243.44;5038173;28;20105;-75
2023/03/05 03:59:27;;;;;;;4.85;2.78;;;;;;;2.09;66.65;98237.13;5043152;28;20029;-74
2023/03/05 04:01:53;;;;;;;4.72;2.95;;;;;;;2.13;66.93;98230.41;5046305;28;20021;-75
2023/03/05 04:04:18;;;;;;;5.82;3.03;;;;;;;1.97;67.57;98226.19;5041646;28;20037;-73
2023/03/05 04:06:44;;;;;;;8.43;3.42;;;;;;;2.13;66.29;98229.56;5039066;28;20025;-74
2023/03/05 04:09:09;;;;;;;5.13;3.60;;;;;;;2.10;67.24;98236.13;5043291;28;20037;-72
2023/03/05 04:11:35;;;;;;;5.10;3.35;;;;;;;2.06;68.13;98242.81;5030525;28;20029;-72
2023/03/05 04:14:02;;;;;;;6.25;3.45;;;;;;;2.01;67.57;98237.22;5043259;28;20042;-73
2023/03/05 04:16:27;;;;;;;5.72;4.13;;;;;;;2.04;68.20;98236.88;5045555;28;20025;-73
2023/03/05 04:18:53;;;;;;;4.18;3.58;;;;;;;1.93;69.12;98234.72;5092173;23;20092;-74
2023/03/05 04:21:18;;;;;;;5.43;4.10;;;;;;;1.94;69.09;98236.34;5075125;28;20027;-74
2023/03/05 04:23:43;;;;;;;6.50;3.85;;;;;;;1.94;68.63;98241.66;5092154;28;20417;-74
2023/03/05 04:26:09;;;;;;;7.22;3.92;;;;;;;1.89;67.78;98238.75;5058840;28;20077;-74
2023/03/05 04:28:34;;;;;;;4.97;3.33;;;;;;;1.87;67.50;98230.13;5083624;28;20127;-75
2023/03/05 04:31:00;;;;;;;5.60;3.60;;;;;;;2.03;67.60;98240.56;5085801;28;20028;-75
2023/03/05 04:33:25;;;;;;;4.53;3.28;;;;;;;1.89;68.22;98238.75;5067756;28;20086;-74
2023/03/05 04:35:51;;;;;;;4.63;2.90;;;;;;;1.96;66.64;98231.69;5067872;28;20028;-75
2023/03/05 04:38:16;;;;;;;5.78;3.40;;;;;;;1.93;66.66;98229.41;5071810;28;20055;-74
2023/03/05 04:40:41;;;;;;;6.30;3.00;;;;;;;1.91;67.85;98221.59;5068468;28;20028;-74
2023/03/05 04:43:07;;;;;;;5.43;3.70;;;;;;;1.96;67.52;98231.69;5080935;28;20040;-74
2023/03/05 04:45:33;;;;;;;4.85;3.55;;;;;;;1.94;68.20;98223.91;5078316;28;20024;-76
2023/03/05 04:47:58;;;;;;;7.45;3.67;;;;;;;1.93;68.37;98216.13;5084155;28;20050;-75
2023/03/05 04:50:23;;;;;;;5.75;3.50;;;;;;;1.86;67.71;98223.19;5068280;28;20454;-75
2023/03/05 04:52:49;;;;;;;6.22;3.75;;;;;;;1.85;68.10;98221.53;5045762;28;20027;-75
2023/03/05 04:55:15;;;;;;;6.05;3.33;;;;;;;1.86;67.41;98220.56;5071397;28;20107;-75
2023/03/05 04:57:41;;;;;;;3.90;3.55;;;;;;;1.93;67.51;98219.63;5071546;28;20399;-75
2023/03/05 05:00:13;;;;;;;5.90;3.15;;;;;;;2.08;66.92;98219.53;5072366;28;20029;-75
2023/03/05 05:02:40;;;;;;;4.88;3.30;;;;;;;1.86;66.43;98215.25;5084079;28;20138;-75
2023/03/05 05:05:07;;;;;;;3.60;2.83;;;;;;;1.79;67.04;98217.00;5070007;28;20503;-74
2023/03/05 05:07:32;;;;;;;5.07;3.08;;;;;;;1.81;66.84;98204.34;5071186;28;20035;-75
2023/03/05 05:09:57;;;;;;;5.22;3.13;;;;;;;1.77;66.80;98203.09;5069919;28;20471;-75
2023/03/05 05:12:23;;;;;;;4.10;2.83;;;;;;;1.83;66.82;98212.94;5091395;28;20091;-75
2023/03/05 05:14:48;;;;;;;5.22;3.08;;;;;;;1.82;66.26;98200.72;5077582;28;20028;-75
2023/03/05 05:17:14;;;;;;;5.82;3.50;;;;;;;1.87;67.06;98203.59;5082428;28;20036;-75
2023/03/05 05:19:39;;;;;;;6.03;3.95;;;;;;;1.93;67.41;98197.53;5069447;28;20446;-75
2023/03/05 05:22:04;;;;;;;7.97;4.40;;;;;;;2.14;67.22;98200.19;5092507;28;20538;-75
2023/03/05 05:24:30;;;;;;;4.78;3.72;;;;;;;2.00;67.16;98203.75;5072741;28;20099;-75
2023/03/05 05:26:55;;;;;;;10.25;4.05;;;;;;;1.91;67.32;98199.56;5070842;28;20040;-75
2023/03/05 05:29:21;;;;;;;4.55;3.22;;;;;;;2.06;67.30;98203.78;5084418;28;20020;-75
2023/03/05 05:31:47;;;;;;;7.15;4.03;;;;;;;2.03;68.05;98208.69;5091337;28;20118;-76
2023/03/05 05:34:12;;;;;;;5.63;3.95;;;;;;;2.12;67.08;98198.75;5078833;28;20021;-75
2023/03/05 05:36:37;;;;;;;7.30;4.28;;;;;;;2.02;68.04;98207.03;5071275;28;20147;-74
2023/03/05 05:39:03;;;;;;;5.90;4.10;;;;;;;1.94;67.94;98204.47;5050910;28;20025;-75
2023/03/05 05:41:28;;;;;;;8.80;3.60;;;;;;;2.07;67.70;98210.75;5070580;28;20028;-75
2023/03/05 05:43:55;;;;;;;5.53;3.58;;;;;;;2.12;66.92;98196.91;5066842;28;20031;-74
2023/03/05 05:46:21;;;;;;;6.43;3.47;;;;;;;2.15;67.43;98212.44;5062127;28;20093;-75
2023/03/05 05:48:47;;;;;;;7.68;5.13;;;;;;;2.08;68.37;98200.94;5061331;28;20017;-75
2023/03/05 05:51:18;;;;;;;6.47;3.60;;;;;;;2.06;66.70;98208.28;5102952;28;20524;-75
2023/03/05 05:53:44;;;;;;;5.05;3.60;;;;;;;1.97;68.36;98204.09;5072168;28;20033;-74
2023/03/05 05:56:10;;;;;;;6.07;4.18;;;;;;;2.01;68.31;98200.06;5070461;28;20098;-75
2023/03/05 05:58:37;;;;;;;6.45;3.63;;;;;;;2.04;68.15;98199.69;5066885;28;20035;-75
2023/03/05 06:01:11;;;;;;;6.50;4.18;;;;;;;2.08;67.15;98206.25;5079489;28;20043;-75
2023/03/05 06:03:36;;;;;;;5.15;4.38;;;;;;;2.03;68.47;98208.69;5060265;28;20085;-76
2023/03/05 06:06:02;;;;;;;8.52;4.90;;;;;;;1.96;68.61;98213.09;5070386;28;20391;-76
2023/03/05 06:08:27;;;;;;;7.13;5.25;;;;;;;2.05;67.85;98201.34;5050507;28;20132;-75
2023/03/05 06:10:54;;;;;;;6.05;4.53;;;;;;;2.13;67.80;98206.50;5056802;28;20093;-76
2023/03/05 06:13:19;;;;;;;6.43;5.82;;;;;;;2.04;68.60;98199.69;5056561;28;20490;-75
2023/03/05 06:15:44;;;;;;;8.63;6.93;;;;;;;1.99;68.23;98202.09;5080355;28;20032;-75
2023/03/05 06:18:10;;;;;;;9.85;7.35;;;;;;;1.90;69.30;98203.22;5073494;28;20036;-76
2023/03/05 06:20:35;;;;;;;7.28;5.72;;;;;;;1.95;68.90;98206.97;5062833;28;20028;-76
2023/03/05 06:23:01;;;;;;;8.52;5.45;;;;;;;1.91;69.44;98212.84;5083408;28;20115;-75
2023/03/05 06:25:26;;;;;;;8.60;6.03;;;;;;;1.90;70.03;98204.06;5046344;28;20027;-76
2023/03/05 06:27:51;;;;;;;8.63;7.40;;;;;;;1.94;69.73;98204.47;5072601;28;20131;-76
2023/03/05 06:30:17;;;;;;;7.00;6.07;;;;;;;1.96;69.14;98207.78;5069908;28;20020;-76
2023/03/05 06:32:42;;;;;;;9.30;5.75;;;;;;;2.03;69.68;98214.00;5077776;28;20119;-76
2023/03/05 06:35:08;;;;;;;6.75;5.80;;;;;;;2.15;68.65;98209.78;5069946;28;20024;-77
2023/03/05 06:37:33;;;;;;;9.80;5.97;;;;;;;1.94;69.67;98207.13;5052485;28;20035;-75
2023/03/05 06:39:58;;;;;;;6.95;5.40;;;;;;;2.14;69.23;98205.50;5084332;28;20022;-77
2023/03/05 06:42:24;;;;;;;9.05;6.07;;;;;;;2.29;68.37;98211.53;5075070;28;20076;-75
2023/03/05 06:44:49;;;;;;;6.75;5.47;;;;;;;2.19;69.33;98208.41;5072542;28;20089;-76
2023/03/05 06:47:15;;;;;;;6.90;6.20;;;;;;;2.14;70.12;98210.81;5092278;28;20730;-75
2023/03/05 06:49:40;;;;;;;9.80;7.07;;;;;;;2.04;69.81;98205.00;5061954;28;20074;-76
2023/03/05 06:52:08;;;;;;;8.32;7.60;;;;;;;2.14;70.04;98210.81;5088043;28;20043;-76
2023/03/05 06:54:34;;;;;;;12.18;10.98;;;;;;;1.98;70.99;98211.06;5078527;28;20111;-77
2023/03/05 06:56:59;;;;;;;10.38;9.45;;;;;;;2.03;71.22;98211.34;5069547;28;20503;-75
2023/03/05 06:59:25;;;;;;;10.75;8.13;;;;;;;2.04;71.14;98211.13;5062175;28;20039;-77
2023/03/05 07:01:50;;;;;;;10.10;9.10;;;;;;;1.95;71.34;98211.44;5076260;28;20047;-77
2023/03/05 07:04:16;;;;;;;10.30;9.50;;;;;;;2.04;71.68;98216.44;5069486;28;20089;-76
2023/03/05 07:06:41;;;;;;;11.27;10.18;;;;;;;2.00;71.75;98212.53;5087285;28;20073;-73
2023/03/05 07:09:10;;;;;;;12.68;11.13;;;;;;;2.02;72.96;98217.66;5081172;28;20025;-74
2023/03/05 07:11:35;;;;;;;12.95;11.70;;;;;;;2.04;71.83;98199.69;5069439;28;20039;-76
2023/03/05 07:14:01;;;;;;;13.57;12.40;;;;;;;2.08;72.54;98211.56;5081762;28;20027;-75
2023/03/05 07:16:29;;;;;;;14.95;13.48;;;;;;;2.03;72.37;98214.00;5076251;28;20068;-74
2023/03/05 07:18:56;;;;;;;15.68;14.27;;;;;;;2.12;73.09;98212.00;5069086;28;20028;-77
2023/03/05 07:21:27;;;;;;;13.13;11.93;;;;;;;2.00;71.12;98219.66;5069374;28;20123;-76
2023/03/05 07:23:53;;;;;;;10.85;8.20;;;;;;;1.88;70.83;98206.06;5071973;28;20064;-76
2023/03/05 07:26:20;;;;;;;11.80;7.75;;;;;;;1.84;71.15;98204.00;5072387;28;20213;-75
2023/03/05 07:28:45;;;;;;;9.55;8.10;;;;;;;1.92;70.48;98206.50;5079290;28;20032;-75
2023/03/05 07:31:19;;;;;;;8.45;7.70;;;;;;;1.91;70.07;98208.34;5072980;28;20118;-75
2023/03/05 07:33:48;;;;;;;7.30;6.53;;;;;;;1.89;69.57;98206.91;5072961;28;20036;-75
2023/03/05 07:36:14;;;;;;;6.57;5.97;;;;;;;1.95;70.47;98209.63;5072910;28;20055;-76
2023/03/05 07:38:40;;;;;;;6.80;5.75;;;;;;;1.84;69.83;98206.66;5095342;28;20043;-77
2023/03/05 07:41:08;;;;;;;6.78;5.90;;;;;;;1.93;69.60;98203.69;5089033;28;20111;-75
2023/03/05 07:43:33;;;;;;;8.23;6.05;;;;;;;1.92;70.23;98203.84;5085447;28;20387;-76
2023/03/05 07:45:59;;;;;;;9.27;6.38;;;;;;;2.06;69.60;98193.16;5062838;28;20062;-76
2023/03/05 07:48:24;;;;;;;6.72;5.95;;;;;;;2.06;70.20;98192.34;5047835;28;20127;-75
2023/03/05 07:50:50;;;;;;;5.60;5.10;;;;;;;2.14;68.22;98194.88;5052774;28;20024;-76
2023/03/05 07:53:15;;;;;;;6.80;4.88;;;;;;;2.00;67.82;98198.44;5066550;28;20048;-76
2023/03/05 07:55:43;;;;;;;10.23;5.28;;;;;;;2.22;67.90;98193.94;5078092;28;20081;-75
2023/03/05 07:58:08;;;;;;;6.57;4.47;;;;;;;2.22;67.78;98192.06;5081975;28;20032;-75
2023/03/05 08:00:35;;;;;;;7.32;3.95;;;;;;;2.34;66.87;98189.72;5086112;28;20426;-75
2023/03/05 08:03:01;;;;;;;5.30;3.40;;;;;;;2.14;66.74;98192.22;5079410;28;20031;-74
2023/03/05 08:05:26;;;;;;;10.07;3.85;;;;;;;2.13;66.70;98193.22;5084030;28;20019;-75
2023/03/05 08:07:52;;;;;;;5.93;4.00;;;;;;;2.07;67.12;98188.69;5095956;28;20027;-76
2023/03/05 08:10:17;;;;;;;5.38;3.70;;;;;;;2.13;66.57;98195.06;5072476;28;20036;-75
2023/03/05 08:12:43;;;;;;;5.88;3.85;;;;;;;2.01;66.27;98189.44;5055734;28;20036;-75
2023/03/05 08:15:08;;;;;;;5.13;4.07;;;;;;;2.02;66.57;98196.41;5068963;28;20103;-75
2023/03/05 08:17:34;;;;;;;4.53;2.97;;;;;;;2.01;65.62;98197.41;5084062;28;20035;-75
2023/03/05 08:20:04;;;;;;;8.60;5.65;;;;;;;2.27;65.87;98194.16;5062690;28;20079;-75
2023/03/05 08:22:32;;;;;;;6.32;3.42;;;;;;;2.02;66.30;98199.06;5092092;28;20027;-75
2023/03/05 08:24:57;;;;;;;4.53;3.25;;;;;;;2.04;66.39;98194.38;5071911;28;20552;-75
2023/03/05 08:27:22;;;;;;;4.93;2.53;;;;;;;2.29;65.04;98187.63;5073156;28;20032;-75
2023/03/05 08:29:48;;;;;;;5.90;4.15;;;;;;;2.48;65.82;98186.97;5085988;28;20096;-75
2023/03/05 08:32:13;;;;;;;7.75;3.80;;;;;;;2.37;65.46;98176.88;5068044;28;20479;-75
2023/03/05 08:34:38;;;;;;;6.20;3.42;;;;;;;2.43;65.66;98178.75;5073232;28;20074;-75
2023/03/05 08:37:05;;;;;;;7.65;3.83;;;;;;;2.49;65.59;98175.34;5067655;28;20492;-75
2023/03/05 08:39:30;;;;;;;4.20;3.63;;;;;;;2.45;66.06;98182.03;5070395;28;20020;-75
2023/03/05 08:41:55;;;;;;;7.45;4.07;;;;;;;2.50;66.81;98179.63;5064092;28;20614;-74
2023/03/05 08:44:21;;;;;;;5.07;3.40;;;;;;;2.31;65.90;98169.66;5056506;28;20025;-75
2023/03/05 08:46:46;;;;;;;6.05;3.38;;;;;;;2.45;65.23;98176.72;5071754;28;20067;-75
2023/03/05 08:49:11;;;;;;;5.28;3.15;;;;;;;2.55;64.79;98177.22;5068782;28;20028;-75
2023/03/05 08:51:37;;;;;;;6.47;3.50;;;;;;;2.54;64.52;98164.94;5084778;28;20028;-76
2023/03/05 08:54:05;;;;;;;4.40;3.42;;;;;;;2.36;65.64;98171.75;5074928;28;20111;-75
2023/03/05 08:56:31;;;;;;;5.78;3.50;;;;;;;2.47;66.16;98172.06;5055817;28;20037;-76
2023/03/05 08:58:57;;;;;;;8.65;5.30;;;;;;;2.60;66.69;98169.47;5086971;28;20016;-75
2023/03/05 09:01:22;;;;;;;5.43;4.00;;;;;;;2.53;66.37;98171.28;5083876;28;20036;-75
2023/03/05 09:03:48;;;;;;;6.75;4.22;;;;;;;2.59;65.86;98167.81;5071126;28;20070;-75
2023/03/05 09:06:13;;;;;;;6.97;3.67;;;;;;;2.48;66.94;98163.06;5066360;28;20032;-76
2023/03/05 09:08:39;;;;;;;8.65;4.68;;;;;;;2.42;66.76;98170.97;5071515;28;20551;-76
2023/03/05 09:11:06;;;;;;;6.40;4.55;;;;;;;2.64;66.60;98165.41;5083095;28;20407;-75
2023/03/05 09:13:32;;;;;;;12.50;4.95;;;;;;;2.86;66.47;98168.00;5070379;28;20501;-75
2023/03/05 09:16:03;;;;;;;7.53;4.90;;;;;;;2.96;65.96;98163.13;5081659;28;20032;-76
2023/03/05 09:18:29;;;;;;;7.57;4.30;;;;;;;2.64;66.63;98154.78;5088129;28;20051;-75
2023/03/05 09:20:54;;;;;;;8.18;5.22;;;;;;;2.59;67.48;98146.56;5074536;28;20483;-75
2023/03/05 09:23:20;;;;;;;7.45;4.65;;;;;;;2.68;67.29;98156.00;5077592;28;20036;-76
2023/03/05 09:25:46;;;;;;;6.10;5.50;;;;;;;2.60;67.85;98148.22;5080639;28;20029;-76
2023/03/05 09:28:11;;;;;;;7.28;5.88;;;;;;;2.76;68.83;98155.88;5084683;28;20032;-75
2023/03/05 09:30:37;;;;;;;8.52;5.57;;;;;;;2.73;68.24;98140.31;5066276;28;20024;-75
2023/03/05 09:33:03;;;;;;;9.35;4.60;;;;;;;2.70;67.11;98143.38;5077485;28;20032;-76
2023/03/05 09:35:28;;;;;;;7.38;5.20;;;;;;;2.75;68.14;98150.75;5079398;28;20103;-75
2023/03/05 09:37:54;;;;;;;6.95;5.20;;;;;;;2.94;68.07;98143.91;5069645;28;20521;-75
2023/03/05 09:40:20;;;;;;;6.75;5.28;;;;;;;2.95;67.07;98150.84;5062174;28;20032;-75
2023/03/05 09:43:07;;;;;;;6.63;5.10;;;;;;;2.96;66.35;98144.53;5070016;28;20040;-75
2023/03/05 09:45:41;;;;;;;9.60;5.28;;;;;;;3.08;67.35;98145.59;5084497;28;20031;-76
2023/03/05 09:48:23;;;;;;;5.90;4.30;;;;;;;2.79;66.96;98144.84;5062260;28;20055;-76
2023/03/05 09:50:50;;;;;;;6.50;4.95;;;;;;;2.82;66.73;98145.47;5070207;28;20060;-76
2023/03/05 09:53:34;;;;;;;4.95;4.45;;;;;;;2.99;67.76;98146.78;5081523;28;20390;-75
2023/03/05 09:56:04;;;;;;;8.23;5.38;;;;;;;2.73;67.71;98139.50;5070259;28;20039;-75
2023/03/05 09:58:37;;;;;;;5.95;4.70;;;;;;;2.91;66.64;98144.28;5064377;28;20020;-76
2023/03/05 10:01:18;;;;;;;7.20;5.68;;;;;;;2.93;65.82;98135.09;5070779;28;20491;-75
2023/03/05 10:03:53;;;;;;;6.50;3.53;;;;;;;2.97;64.27;98138.16;5073347;28;20036;-76
2023/03/05 10:06:34;;;;;;;6.63;4.60;;;;;;;2.94;63.54;98122.63;5081168;28;20033;-75
2023/03/05 10:09:06;;;;;;;17.85;9.60;;;;;;;2.89;62.16;98117.06;5070298;28;20434;-75
2023/03/05 10:11:54;;;;;;;3.92;2.40;;;;;;;2.98;60.42;98123.88;5098813;28;20039;-75
2023/03/05 10:14:37;;;;;;;16.55;8.80;;;;;;;3.13;60.88;98116.53;5100850;28;20123;-75
2023/03/05 10:17:51;;;;;;;3.65;2.50;;;;;;;3.05;60.85;98119.41;5067686;28;20430;-75
2023/03/05 10:20:42;;;;;;;4.72;3.00;;;;;;;3.22;63.70;98112.72;5069954;28;20041;-77
2023/03/05 10:23:07;;;;;;;6.15;3.92;;;;;;;3.26;61.24;98113.94;5068837;28;20032;-76
2023/03/05 10:26:03;;;;;;;4.30;3.30;;;;;;;3.22;62.57;98112.72;5102275;28;20020;-77
2023/03/05 10:28:42;;;;;;;6.93;3.47;;;;;;;3.50;62.47;98102.75;5055374;28;20051;-77
2023/03/05 10:31:14;;;;;;;5.57;3.10;;;;;;;3.48;61.79;98096.78;5071862;28;20035;-77
2023/03/05 10:34:02;;;;;;;6.63;3.10;;;;;;;3.53;60.30;98086.34;5053790;28;20037;-75
2023/03/05 10:36:44;;;;;;;7.57;2.60;;;;;;;3.68;61.43;98092.34;5074004;28;20116;-75
2023/03/05 10:39:50;;;;;;;3.75;2.35;;;;;;;3.76;61.36;98091.28;5076324;28;20446;-75
2023/03/05 10:42:34;;;;;;;4.55;2.50;;;;;;;3.98;61.02;98082.94;5058031;28;20060;-76
2023/03/05 10:45:08;;;;;;;2.72;2.00;;;;;;;3.84;57.22;98078.63;5099605;28;20031;-76
2023/03/05 10:47:43;;;;;;;3.90;2.40;;;;;;;3.90;57.66;98080.44;5063024;28;20043;-74
2023/03/05 10:50:22;;;;;;;4.72;2.45;;;;;;;4.07;57.84;98068.38;5077397;28;20376;-76
2023/03/05 10:53:21;;;;;;;2.92;2.10;;;;;;;3.71;56.14;98051.97;5051502;28;20063;-75
2023/03/05 10:55:46;;;;;;;5.03;2.25;;;;;;;3.71;57.89;98061.81;5068915;28;20055;-75
2023/03/05 10:58:14;;;;;;;2.80;1.83;;;;;;;3.90;58.18;98051.16;5077719;28;20028;-75
2023/03/05 11:00:40;;;;;;;4.13;2.55;;;;;;;3.97;57.19;98051.97;5091173;28;20036;-76
2023/03/05 11:03:09;;;;;;;5.03;2.78;;;;;;;4.04;56.35;98047.44;5077305;28;20036;-75
2023/03/05 11:05:47;;;;;;;5.85;4.53;;;;;;;4.02;56.39;98044.19;5102931;28;20390;-76
2023/03/05 11:08:33;;;;;;;4.00;1.90;;;;;;;4.20;56.29;98040.91;5080074;28;20047;-76
2023/03/05 11:11:16;;;;;;;4.43;1.95;;;;;;;4.28;55.84;98042.50;5087312;28;20042;-75
2023/03/05 11:13:55;;;;;;;4.80;3.00;;;;;;;3.96;56.87;98039.69;5088081;28;20043;-76
2023/03/05 11:16:27;;;;;;;5.38;2.30;;;;;;;3.83;57.14;98037.00;5071115;28;20089;-75
2023/03/05 11:19:16;;;;;;;3.58;2.15;;;;;;;3.82;57.58;98034.56;5093564;28;20083;-76
2023/03/05 11:21:43;;;;;;;3.42;1.77;;;;;;;3.45;57.09;98030.66;5065553;28;20154;-76
2023/03/05 11:24:14;;;;;;;3.75;2.60;;;;;;;3.49;58.13;98030.06;5101423;28;20028;-74
2023/03/05 11:26:51;;;;;;;5.57;2.83;;;;;;;3.61;57.53;98040.91;5060019;28;20042;-75
2023/03/05 11:29:22;;;;;;;5.95;4.45;;;;;;;3.73;57.96;98028.63;5073826;28;20676;-76
2023/03/05 11:31:48;;;;;;;4.85;2.70;;;;;;;3.61;57.29;98030.28;5068267;28;20433;-76
2023/03/05 11:34:16;;;;;;;3.47;2.10;;;;;;;3.65;56.98;98031.50;5052962;28;20023;-75
2023/03/05 11:36:56;;;;;;;5.28;4.32;;;;;;;3.73;56.47;98023.31;5081970;28;20036;-75
2023/03/05 11:39:23;;;;;;;4.60;2.65;;;;;;;3.77;56.98;98021.03;5079590;28;20423;-76
2023/03/05 11:41:53;;;;;;;4.47;3.65;;;;;;;3.93;56.88;98013.47;5073268;28;20115;-76
2023/03/05 11:44:25;;;;;;;2.42;1.77;;;;;;;3.96;55.82;98005.06;5080908;28;20444;-76